createdAt,value
2023-05-06T00:01:21.669Z,4.88
2023-05-06T00:03:49.395Z,4.97
2023-05-06T00:06:17.162Z,5.68
2023-05-06T00:08:46.085Z,5.47
2023-05-06T00:11:13.856Z,5.80
2023-05-06T00:13:42.376Z,5.68
2023-05-06T00:16:10.323Z,5.68
2023-05-06T00:18:37.777Z,4.72
2023-05-06T00:21:05.714Z,5.03
2023-05-06T00:23:33.338Z,5.40
2023-05-06T00:26:00.950Z,5.40
2023-05-06T00:28:28.916Z,5.30
2023-05-06T00:30:56.758Z,6.28
2023-05-06T00:33:24.332Z,5.45
2023-05-06T00:35:52.834Z,5.55
2023-05-06T00:38:20.816Z,5.88
2023-05-06T00:40:48.862Z,5.90
2023-05-06T00:43:16.950Z,6.28
2023-05-06T00:45:45.517Z,7.28
2023-05-06T00:48:13.437Z,6.35
2023-05-06T00:50:41.061Z,6.68
2023-05-06T00:53:09.873Z,6.70
2023-05-06T00:55:38.860Z,7.28
2023-05-06T00:58:07.141Z,5.47
2023-05-06T01:00:35.317Z,5.10
2023-05-06T01:03:03.296Z,7.57
2023-05-06T01:05:35.928Z,5.60
2023-05-06T01:08:13.276Z,6.30
2023-05-06T01:10:56.175Z,4.68
2023-05-06T01:14:11.405Z,6.15
2023-05-06T01:16:41.497Z,6.65
2023-05-06T01:19:29.442Z,7.10
2023-05-06T01:22:01.303Z,6.68
2023-05-06T01:24:40.620Z,6.53
2023-05-06T01:27:09.456Z,6.53
2023-05-06T01:29:41.467Z,6.97
2023-05-06T01:32:16.834Z,7.13
2023-05-06T01:35:12.153Z,5.45
2023-05-06T01:37:58.412Z,5.63
2023-05-06T01:40:28.407Z,5.72
2023-05-06T01:42:57.318Z,7.18
2023-05-06T01:45:28.596Z,7.82
2023-05-06T01:47:57.615Z,7.45
2023-05-06T01:50:26.212Z,5.85
2023-05-06T01:53:01.906Z,6.20
2023-05-06T01:55:29.929Z,6.53
2023-05-06T01:57:57.508Z,6.22
2023-05-06T02:00:26.746Z,7.88
2023-05-06T02:02:54.894Z,7.78
2023-05-06T02:05:22.937Z,6.85
2023-05-06T02:07:54.906Z,6.20
2023-05-06T02:10:23.466Z,7.07
2023-05-06T02:12:57.833Z,7.05
2023-05-06T02:15:26.253Z,7.72
2023-05-06T02:17:54.045Z,7.40
2023-05-06T02:20:21.672Z,8.35
2023-05-06T02:22:49.179Z,8.13
2023-05-06T02:25:17.260Z,9.13
2023-05-06T02:27:46.156Z,9.23
2023-05-06T02:30:14.693Z,8.65
2023-05-06T02:32:42.205Z,7.30
2023-05-06T02:35:10.218Z,9.82
2023-05-06T02:37:37.911Z,10.35
2023-05-06T02:40:06.684Z,11.23
2023-05-06T02:42:35.640Z,10.50
2023-05-06T02:45:03.618Z,13.23
2023-05-06T02:47:33.390Z,11.23
2023-05-06T02:50:01.164Z,11.93
2023-05-06T02:52:29.082Z,11.27
2023-05-06T02:54:56.953Z,13.55
2023-05-06T02:57:24.802Z,12.43
2023-05-06T02:59:52.323Z,12.48
2023-05-06T03:02:19.951Z,12.95
2023-05-06T03:04:47.536Z,12.75
2023-05-06T03:07:15.118Z,13.20
2023-05-06T03:09:43.121Z,13.07
2023-05-06T03:12:11.932Z,15.20
2023-05-06T03:14:40.104Z,12.32
2023-05-06T03:17:07.870Z,12.60
2023-05-06T03:19:37.535Z,12.98
2023-05-06T03:22:07.146Z,12.68
2023-05-06T03:24:37.116Z,11.32
2023-05-06T03:27:07.347Z,14.02
2023-05-06T03:29:34.917Z,13.20
2023-05-06T03:32:06.831Z,12.45
2023-05-06T03:34:41.202Z,12.63
2023-05-06T03:37:11.374Z,12.68
2023-05-06T03:39:41.818Z,12.88
2023-05-06T03:42:10.856Z,13.57
2023-05-06T03:44:39.126Z,13.05
2023-05-06T03:47:06.940Z,12.27
2023-05-06T03:49:36.026Z,12.93
2023-05-06T03:52:04.652Z,12.82
2023-05-06T03:54:32.977Z,12.07
2023-05-06T03:57:01.249Z,13.60
2023-05-06T03:59:29.235Z,13.63
2023-05-06T04:01:58.149Z,13.35
2023-05-06T04:04:27.318Z,15.20
2023-05-06T04:06:55.436Z,13.55
2023-05-06T04:09:25.138Z,14.15
2023-05-06T04:11:53.582Z,14.98
2023-05-06T04:14:22.231Z,15.18
2023-05-06T04:16:49.927Z,15.82
2023-05-06T04:19:17.948Z,14.98
2023-05-06T04:21:47.122Z,15.90
2023-05-06T04:24:16.060Z,16.00
2023-05-06T04:26:43.771Z,16.73
2023-05-06T04:29:12.091Z,16.75
2023-05-06T04:31:48.148Z,16.83
2023-05-06T04:34:16.676Z,15.85
2023-05-06T04:36:47.103Z,17.10
2023-05-06T04:39:25.615Z,17.55
2023-05-06T04:41:53.350Z,16.40
2023-05-06T04:44:28.932Z,16.23
2023-05-06T04:46:57.061Z,17.80
2023-05-06T04:49:24.954Z,18.25
2023-05-06T04:51:53.024Z,16.92
2023-05-06T04:54:21.011Z,16.55
2023-05-06T04:56:48.910Z,17.85
2023-05-06T04:59:18.827Z,17.60
2023-05-06T05:01:46.995Z,17.13
2023-05-06T05:04:14.870Z,16.17
2023-05-06T05:06:42.850Z,17.88
2023-05-06T05:09:11.000Z,18.17
2023-05-06T05:11:41.969Z,15.88
2023-05-06T05:14:09.575Z,17.17
2023-05-06T05:16:38.185Z,15.10
2023-05-06T05:19:09.022Z,17.30
2023-05-06T05:21:37.207Z,16.60
2023-05-06T05:24:05.825Z,15.60
2023-05-06T05:26:33.999Z,13.43
2023-05-06T05:29:01.557Z,12.23
2023-05-06T05:31:31.472Z,12.40
2023-05-06T05:34:00.275Z,11.68
2023-05-06T05:36:29.120Z,11.75
2023-05-06T05:38:58.910Z,13.43
2023-05-06T05:41:29.020Z,12.00
2023-05-06T05:43:56.876Z,12.70
2023-05-06T05:46:25.625Z,13.98
2023-05-06T05:48:53.310Z,12.38
2023-05-06T05:51:23.816Z,14.55
2023-05-06T05:53:52.814Z,12.88
2023-05-06T05:56:22.828Z,11.23
2023-05-06T05:58:50.661Z,9.93
2023-05-06T06:01:18.179Z,11.00
2023-05-06T06:03:47.564Z,12.32
2023-05-06T06:06:15.712Z,11.73
2023-05-06T06:08:43.793Z,11.80
2023-05-06T06:11:12.960Z,12.10
2023-05-06T06:13:42.749Z,10.30
2023-05-06T06:16:10.983Z,10.25
2023-05-06T06:18:38.940Z,10.10
2023-05-06T06:21:06.988Z,10.45
2023-05-06T06:23:35.775Z,9.10
2023-05-06T06:26:04.660Z,10.77
2023-05-06T06:28:33.802Z,9.05
2023-05-06T06:31:02.103Z,9.65
2023-05-06T06:33:29.651Z,9.25
2023-05-06T06:35:58.314Z,10.05
2023-05-06T06:38:26.028Z,8.50
2023-05-06T06:40:54.422Z,7.85
2023-05-06T06:43:23.630Z,7.60
2023-05-06T06:45:57.352Z,8.68
2023-05-06T06:48:25.256Z,8.52
2023-05-06T06:50:53.290Z,7.45
2023-05-06T06:53:20.928Z,8.23
2023-05-06T06:55:49.024Z,6.93
2023-05-06T06:58:16.918Z,7.72
2023-05-06T07:00:45.125Z,7.18
2023-05-06T07:03:15.865Z,7.32
2023-05-06T07:05:44.779Z,7.77
2023-05-06T07:08:12.844Z,7.25
2023-05-06T07:10:41.727Z,7.28
2023-05-06T07:13:09.435Z,6.43
2023-05-06T07:15:37.045Z,6.50
2023-05-06T07:18:05.018Z,6.28
2023-05-06T07:20:33.032Z,6.68
2023-05-06T07:23:01.139Z,6.10
2023-05-06T07:25:31.358Z,6.78
2023-05-06T07:27:59.075Z,5.25
2023-05-06T07:30:26.899Z,5.60
2023-05-06T07:32:55.075Z,5.47
2023-05-06T07:35:22.914Z,5.05
2023-05-06T07:37:51.045Z,6.38
2023-05-06T07:40:18.909Z,4.40
2023-05-06T07:42:46.722Z,4.50
2023-05-06T07:45:15.253Z,4.50
2023-05-06T07:47:43.270Z,4.80
2023-05-06T07:50:11.476Z,5.65
2023-05-06T07:52:38.931Z,5.00
2023-05-06T07:55:09.810Z,3.92
2023-05-06T07:57:37.957Z,4.18
2023-05-06T08:00:06.264Z,5.20
2023-05-06T08:02:44.315Z,3.97
2023-05-06T08:05:13.032Z,5.72
2023-05-06T08:07:41.965Z,4.75
2023-05-06T08:10:10.396Z,4.28
2023-05-06T08:12:38.326Z,4.15
2023-05-06T08:15:07.075Z,4.43
2023-05-06T08:17:35.341Z,5.28
2023-05-06T08:20:03.382Z,4.85
2023-05-06T08:22:31.241Z,5.22
2023-05-06T08:24:59.166Z,4.60
2023-05-06T08:27:27.077Z,4.93
2023-05-06T08:29:55.329Z,5.53
2023-05-06T08:32:23.214Z,5.70
2023-05-06T08:34:51.171Z,4.97
2023-05-06T08:37:19.252Z,4.57
2023-05-06T08:39:47.229Z,3.90
2023-05-06T08:42:15.024Z,4.80
2023-05-06T08:44:43.883Z,4.90
2023-05-06T08:47:11.416Z,5.15
2023-05-06T08:49:39.067Z,4.40
2023-05-06T08:52:06.979Z,4.75
2023-05-06T08:54:36.133Z,5.10
2023-05-06T08:57:06.229Z,4.70
2023-05-06T08:59:34.581Z,4.50
2023-05-06T09:02:02.824Z,4.40
2023-05-06T09:04:31.124Z,4.10
2023-05-06T09:06:59.530Z,4.10
2023-05-06T09:09:27.074Z,4.18
2023-05-06T09:11:57.515Z,3.30
2023-05-06T09:14:25.289Z,3.97
2023-05-06T09:16:53.586Z,3.88
2023-05-06T09:19:22.547Z,3.95
2023-05-06T09:21:51.500Z,3.58
2023-05-06T09:24:19.311Z,3.90
2023-05-06T09:26:47.464Z,4.07
2023-05-06T09:29:15.060Z,4.20
2023-05-06T09:31:44.570Z,3.47
2023-05-06T09:34:13.141Z,3.65
2023-05-06T09:36:41.131Z,4.05
2023-05-06T09:39:09.954Z,4.40
2023-05-06T09:41:37.900Z,3.70
2023-05-06T09:44:06.277Z,3.92
2023-05-06T09:46:33.944Z,3.80
2023-05-06T09:49:03.845Z,3.95
2023-05-06T09:51:32.573Z,3.88
2023-05-06T09:54:01.117Z,4.07
2023-05-06T09:56:30.473Z,4.47
2023-05-06T09:59:01.471Z,3.63
2023-05-06T10:01:36.817Z,5.57
2023-05-06T10:04:09.083Z,4.38
2023-05-06T10:06:39.612Z,4.30
2023-05-06T10:09:10.680Z,4.18
2023-05-06T10:11:39.387Z,4.05
2023-05-06T10:14:07.261Z,4.75
2023-05-06T10:16:36.716Z,4.68
2023-05-06T10:19:06.837Z,4.72
2023-05-06T10:21:38.065Z,4.97
2023-05-06T10:24:09.132Z,5.45
2023-05-06T10:26:38.036Z,4.90
2023-05-06T10:29:10.001Z,4.80
2023-05-06T10:31:43.497Z,4.10
2023-05-06T10:34:11.302Z,3.63
2023-05-06T10:36:40.577Z,5.28
2023-05-06T10:39:10.246Z,4.30
2023-05-06T10:41:38.477Z,4.78
2023-05-06T10:44:07.291Z,4.28
2023-05-06T10:46:59.843Z,4.05
2023-05-06T10:49:27.899Z,5.45
2023-05-06T10:52:16.980Z,4.90
2023-05-06T10:54:52.194Z,4.45
2023-05-06T10:57:27.043Z,4.45
2023-05-06T10:59:55.943Z,4.65
2023-05-06T11:02:24.100Z,4.70
2023-05-06T11:04:53.130Z,5.68
2023-05-06T11:07:24.574Z,5.00
2023-05-06T11:09:56.606Z,6.00
2023-05-06T11:12:45.962Z,4.75
2023-05-06T11:15:40.964Z,5.07
2023-05-06T11:18:31.859Z,5.35
2023-05-06T11:21:02.355Z,4.40
2023-05-06T11:23:42.151Z,4.90
2023-05-06T11:26:11.182Z,5.03
2023-05-06T11:28:47.246Z,4.13
2023-05-06T11:31:16.074Z,4.32
2023-05-06T11:33:51.303Z,3.92
2023-05-06T11:36:20.711Z,3.60
2023-05-06T11:38:53.065Z,5.05
2023-05-06T11:41:23.490Z,3.58
2023-05-06T11:43:52.666Z,3.35
2023-05-06T11:46:22.199Z,3.65
2023-05-06T11:48:50.570Z,3.58
2023-05-06T11:51:24.630Z,3.83
2023-05-06T11:54:09.675Z,3.80
2023-05-06T11:56:51.640Z,2.45
2023-05-06T11:59:29.761Z,2.53
2023-05-06T12:02:07.948Z,2.42
2023-05-06T12:04:46.593Z,2.22
2023-05-06T12:07:16.492Z,2.20
2023-05-06T12:09:47.583Z,2.25
2023-05-06T12:12:22.512Z,2.40
2023-05-06T12:14:52.530Z,2.30
2023-05-06T12:17:20.641Z,3.08
2023-05-06T12:19:48.335Z,2.60
2023-05-06T12:22:26.631Z,2.00
2023-05-06T12:24:54.772Z,1.90
2023-05-06T12:27:35.972Z,2.15
2023-05-06T12:30:04.789Z,2.10
2023-05-06T12:32:33.064Z,1.90
2023-05-06T12:35:05.782Z,1.92
2023-05-06T12:37:33.417Z,2.00
2023-05-06T12:40:01.494Z,2.45
2023-05-06T12:42:29.392Z,1.85
2023-05-06T12:44:57.192Z,2.08
2023-05-06T12:47:26.014Z,2.70
2023-05-06T12:49:59.158Z,3.10
2023-05-06T12:52:29.915Z,2.10
2023-05-06T12:54:57.900Z,2.77
2023-05-06T12:57:26.132Z,2.60
2023-05-06T12:59:53.957Z,2.88
2023-05-06T13:02:21.532Z,2.08
2023-05-06T13:04:49.775Z,2.13
2023-05-06T13:07:17.320Z,1.80
2023-05-06T13:09:45.502Z,2.20
2023-05-06T13:12:13.442Z,2.92
2023-05-06T13:14:41.364Z,2.50
2023-05-06T13:17:09.560Z,2.97
2023-05-06T13:19:37.331Z,2.70
2023-05-06T13:22:05.502Z,2.22
2023-05-06T13:24:33.387Z,2.40
2023-05-06T13:27:01.512Z,2.45
2023-05-06T13:29:29.836Z,3.22
2023-05-06T13:31:57.836Z,2.65
2023-05-06T13:34:26.111Z,2.95
2023-05-06T13:36:54.787Z,2.70
2023-05-06T13:39:22.942Z,3.40
2023-05-06T13:41:50.717Z,3.60
2023-05-06T13:44:19.465Z,2.92
2023-05-06T13:46:47.692Z,3.22
2023-05-06T13:49:15.562Z,3.15
2023-05-06T13:51:43.040Z,2.85
2023-05-06T13:54:11.210Z,3.25
2023-05-06T13:56:39.056Z,2.35
2023-05-06T13:59:08.163Z,2.10
2023-05-06T14:01:36.402Z,2.22
2023-05-06T14:04:04.491Z,2.10
2023-05-06T14:06:32.590Z,2.70
2023-05-06T14:09:00.105Z,2.58
2023-05-06T14:11:27.669Z,2.78
2023-05-06T14:13:57.144Z,2.38
2023-05-06T14:16:25.349Z,2.35
2023-05-06T14:18:53.595Z,3.10
2023-05-06T14:21:21.660Z,2.85
2023-05-06T14:23:49.598Z,2.67
2023-05-06T14:26:17.427Z,3.20
2023-05-06T14:28:45.313Z,2.83
2023-05-06T14:31:13.209Z,3.00
2023-05-06T14:33:41.123Z,4.03
2023-05-06T14:36:08.727Z,3.40
2023-05-06T14:38:36.692Z,3.58
2023-05-06T14:41:04.120Z,2.70
2023-05-06T14:43:31.679Z,2.90
2023-05-06T14:45:59.191Z,3.00
2023-05-06T14:48:42.125Z,3.05
2023-05-06T14:51:09.587Z,3.05
2023-05-06T14:53:37.541Z,3.25
2023-05-06T14:56:09.375Z,2.70
2023-05-06T14:58:37.416Z,2.72
2023-05-06T15:01:05.362Z,2.47
2023-05-06T15:03:33.395Z,3.72
2023-05-06T15:06:01.340Z,2.78
2023-05-06T15:08:29.029Z,2.60
2023-05-06T15:10:56.955Z,55.25
2023-05-06T15:13:24.512Z,10.18
2023-05-06T15:15:52.439Z,4.93
2023-05-06T15:18:20.009Z,4.20
2023-05-06T15:20:48.011Z,3.40
2023-05-06T15:23:15.996Z,2.75
2023-05-06T15:25:43.963Z,3.15
2023-05-06T15:28:11.423Z,3.00
2023-05-06T15:30:39.311Z,3.00
2023-05-06T15:33:08.859Z,3.20
2023-05-06T15:35:36.363Z,3.03
2023-05-06T15:38:04.306Z,3.60
2023-05-06T15:40:32.271Z,3.83
2023-05-06T15:43:00.122Z,4.10
2023-05-06T15:45:27.906Z,4.85
2023-05-06T15:47:56.270Z,3.08
2023-05-06T15:50:32.879Z,2.53
2023-05-06T15:53:02.316Z,2.90
2023-05-06T15:55:34.534Z,2.55
2023-05-06T15:58:09.347Z,2.65
2023-05-06T16:00:37.239Z,2.13
2023-05-06T16:03:05.967Z,2.75
2023-05-06T16:05:35.464Z,2.30
2023-05-06T16:08:03.305Z,2.40
2023-05-06T16:10:31.195Z,2.50
2023-05-06T16:12:59.087Z,2.05
2023-05-06T16:15:26.540Z,2.20
2023-05-06T16:17:54.583Z,2.65
2023-05-06T16:20:22.489Z,2.00
2023-05-06T16:22:50.645Z,2.67
2023-05-06T16:25:18.490Z,2.30
2023-05-06T16:27:46.333Z,2.60
2023-05-06T16:30:14.120Z,3.35
2023-05-06T16:32:41.689Z,2.83
2023-05-06T16:35:09.671Z,2.80
2023-05-06T16:37:37.221Z,3.20
2023-05-06T16:40:05.333Z,3.10
2023-05-06T16:42:33.371Z,3.33
2023-05-06T16:45:04.386Z,3.10
2023-05-06T16:47:32.526Z,3.08
2023-05-06T16:50:01.245Z,3.00
2023-05-06T16:52:30.765Z,2.75
2023-05-06T16:54:58.357Z,2.97
2023-05-06T16:57:26.351Z,4.07
2023-05-06T16:59:54.335Z,3.85
2023-05-06T17:02:22.270Z,3.53
2023-05-06T17:04:49.864Z,5.15
2023-05-06T17:07:17.774Z,3.47
2023-05-06T17:09:45.216Z,3.90
2023-05-06T17:12:12.987Z,3.88
2023-05-06T17:14:41.562Z,4.18
2023-05-06T17:17:09.559Z,4.63
2023-05-06T17:19:37.105Z,5.15
2023-05-06T17:22:04.742Z,5.20
2023-05-06T17:24:32.679Z,5.03
2023-05-06T17:27:00.261Z,4.95
2023-05-06T17:29:28.631Z,3.90
2023-05-06T17:31:56.199Z,4.50
2023-05-06T17:34:24.120Z,5.13
2023-05-06T17:36:51.551Z,4.68
2023-05-06T17:39:19.175Z,5.35
2023-05-06T17:41:46.848Z,5.68
2023-05-06T17:44:17.495Z,5.55
2023-05-06T17:46:48.202Z,5.83
2023-05-06T17:49:15.876Z,5.72
2023-05-06T17:51:45.554Z,5.97
2023-05-06T17:54:14.210Z,6.47
2023-05-06T17:56:41.928Z,6.13
2023-05-06T17:59:09.508Z,6.82
2023-05-06T18:01:37.111Z,6.47
2023-05-06T18:04:04.915Z,7.00
2023-05-06T18:06:32.614Z,6.40
2023-05-06T18:09:00.159Z,7.32
2023-05-06T18:11:27.833Z,7.65
2023-05-06T18:13:56.205Z,8.00
2023-05-06T18:16:23.691Z,8.80
2023-05-06T18:18:51.280Z,13.25
2023-05-06T18:21:18.853Z,11.98
2023-05-06T18:23:46.370Z,10.18
2023-05-06T18:26:19.077Z,9.15
2023-05-06T18:28:52.189Z,8.43
2023-05-06T18:31:20.529Z,8.40
2023-05-06T18:33:48.111Z,8.55
2023-05-06T18:36:15.865Z,9.98
2023-05-06T18:38:43.926Z,10.02
2023-05-06T18:41:11.432Z,9.68
2023-05-06T18:43:39.094Z,8.40
2023-05-06T18:46:06.817Z,8.50
2023-05-06T18:48:34.447Z,7.97
2023-05-06T18:51:17.064Z,7.80
2023-05-06T18:53:45.159Z,9.10
2023-05-06T18:56:14.069Z,8.52
2023-05-06T18:58:41.988Z,8.35
2023-05-06T19:01:10.781Z,6.70
2023-05-06T19:03:38.975Z,6.53
2023-05-06T19:06:10.685Z,6.80
2023-05-06T19:08:38.848Z,6.18
2023-05-06T19:11:06.798Z,8.13
2023-05-06T19:13:34.395Z,7.00
2023-05-06T19:16:02.292Z,8.15
2023-05-06T19:18:29.912Z,7.68
2023-05-06T19:20:57.452Z,7.65
2023-05-06T19:23:25.266Z,7.10
2023-05-06T19:25:52.868Z,6.85
2023-05-06T19:28:20.800Z,6.70
2023-05-06T19:30:48.743Z,7.22
2023-05-06T19:33:16.583Z,8.65
2023-05-06T19:35:44.194Z,7.93
2023-05-06T19:38:12.011Z,7.32
2023-05-06T19:40:39.602Z,6.38
2023-05-06T19:43:07.207Z,6.35
2023-05-06T19:45:34.753Z,5.45
2023-05-06T19:48:04.241Z,6.20
2023-05-06T19:50:33.407Z,5.85
2023-05-06T19:53:01.135Z,5.60
2023-05-06T19:55:28.692Z,6.25
2023-05-06T19:57:56.998Z,6.32
2023-05-06T20:00:27.258Z,6.07
2023-05-06T20:02:59.067Z,5.63
2023-05-06T20:05:31.943Z,5.47
2023-05-06T20:08:00.010Z,6.60
2023-05-06T20:10:28.518Z,5.97
2023-05-06T20:12:57.757Z,5.75
2023-05-06T20:15:26.735Z,6.32
2023-05-06T20:17:54.799Z,6.22
2023-05-06T20:20:22.598Z,7.05
2023-05-06T20:22:50.335Z,6.72
2023-05-06T20:25:18.749Z,8.80
2023-05-06T20:27:46.480Z,10.40
2023-05-06T20:30:14.368Z,11.75
2023-05-06T20:32:42.083Z,13.35
2023-05-06T20:35:10.151Z,13.25
2023-05-06T20:37:38.160Z,15.63
2023-05-06T20:40:07.863Z,19.50
2023-05-06T20:42:35.805Z,26.38
2023-05-06T20:45:05.788Z,36.50
2023-05-06T20:47:33.587Z,38.28
2023-05-06T20:50:01.697Z,42.97
2023-05-06T20:52:29.278Z,43.00
2023-05-06T20:54:58.096Z,51.03
2023-05-06T20:57:25.842Z,48.83
2023-05-06T20:59:53.327Z,55.30
2023-05-06T21:02:21.225Z,54.25
2023-05-06T21:04:49.308Z,43.00
2023-05-06T21:07:17.865Z,42.60
2023-05-06T21:09:46.304Z,44.13
2023-05-06T21:12:13.815Z,46.90
2023-05-06T21:14:41.476Z,44.60
2023-05-06T21:17:09.072Z,45.88
2023-05-06T21:19:36.664Z,38.05
2023-05-06T21:22:04.335Z,40.35
2023-05-06T21:24:31.890Z,35.92
2023-05-06T21:27:00.310Z,23.83
2023-05-06T21:29:27.969Z,20.83
2023-05-06T21:31:55.569Z,20.15
2023-05-06T21:34:23.232Z,22.67
2023-05-06T21:36:50.840Z,19.58
2023-05-06T21:39:18.383Z,18.05
2023-05-06T21:41:46.152Z,16.50
2023-05-06T21:44:13.674Z,15.13
2023-05-06T21:46:41.311Z,10.75
2023-05-06T21:49:13.492Z,9.63
2023-05-06T21:51:41.264Z,10.13
2023-05-06T21:54:08.808Z,12.52
2023-05-06T21:56:36.625Z,10.95
2023-05-06T21:59:04.925Z,7.40
2023-05-06T22:01:32.528Z,9.35
2023-05-06T22:04:00.695Z,9.90
2023-05-06T22:06:29.112Z,7.28
2023-05-06T22:08:56.605Z,9.38
2023-05-06T22:11:24.817Z,8.57
2023-05-06T22:13:52.389Z,7.60
2023-05-06T22:16:20.014Z,8.13
2023-05-06T22:18:47.587Z,7.53
2023-05-06T22:21:15.291Z,8.95
2023-05-06T22:23:42.833Z,10.43
2023-05-06T22:26:10.608Z,11.85
2023-05-06T22:28:38.116Z,10.55
2023-05-06T22:31:05.889Z,9.02
2023-05-06T22:33:33.574Z,8.50
2023-05-06T22:36:01.247Z,6.82
2023-05-06T22:38:28.734Z,5.85
2023-05-06T22:40:56.263Z,5.68
2023-05-06T22:43:23.745Z,5.95
2023-05-06T22:45:51.467Z,5.90
2023-05-06T22:48:18.993Z,5.88
2023-05-06T22:50:46.749Z,6.20
2023-05-06T22:53:15.625Z,5.47
2023-05-06T22:55:43.540Z,5.90
2023-05-06T22:58:11.154Z,5.25
2023-05-06T23:00:38.838Z,5.82
2023-05-06T23:03:06.390Z,5.57
2023-05-06T23:05:34.137Z,6.60
2023-05-06T23:08:01.684Z,7.72
2023-05-06T23:10:29.296Z,7.28
2023-05-06T23:13:00.958Z,9.38
2023-05-06T23:15:29.065Z,8.23
2023-05-06T23:17:56.658Z,9.63
2023-05-06T23:20:24.252Z,8.90
2023-05-06T23:22:52.045Z,8.85
2023-05-06T23:25:19.902Z,9.05
2023-05-06T23:27:47.374Z,8.80
2023-05-06T23:30:15.040Z,9.85
2023-05-06T23:32:42.878Z,10.77
2023-05-06T23:35:10.701Z,11.15
2023-05-06T23:37:38.394Z,12.43
2023-05-06T23:40:07.231Z,13.60
2023-05-06T23:42:34.728Z,14.68
2023-05-06T23:45:02.324Z,15.02
2023-05-06T23:47:29.969Z,13.50
2023-05-06T23:49:58.779Z,14.93
2023-05-06T23:52:26.818Z,15.63
2023-05-06T23:54:54.401Z,15.70
2023-05-06T23:57:21.926Z,14.88
2023-05-06T23:59:49.480Z,17.05
